sensor_id;sensor_type;location;lat;lon;timestamp;P1;durP1;ratioP1;P2;durP2;ratioP2
12603;SDS011;6367;52.508;13.284;2023-12-22T00:01:08;6.07;;;1.70;;
12603;SDS011;6367;52.508;13.284;2023-12-22T00:03:33;13.53;;;1.73;;
12603;SDS011;6367;52.508;13.284;2023-12-22T00:05:59;5.20;;;1.57;;
12603;SDS011;6367;52.508;13.284;2023-12-22T00:08:25;8.33;;;2.30;;
12603;SDS011;6367;52.508;13.284;2023-12-22T00:10:50;9.13;;;2.47;;
12603;SDS011;6367;52.508;13.284;2023-12-22T00:13:16;6.47;;;2.20;;
12603;SDS011;6367;52.508;13.284;2023-12-22T00:15:42;6.77;;;2.03;;
12603;SDS011;6367;52.508;13.284;2023-12-22T00:18:08;8.10;;;2.40;;
12603;SDS011;6367;52.508;13.284;2023-12-22T00:20:34;7.80;;;1.90;;
12603;SDS011;6367;52.508;13.284;2023-12-22T00:23:00;6.87;;;2.20;;
12603;SDS011;6367;52.508;13.284;2023-12-22T00:25:25;9.63;;;4.03;;
12603;SDS011;6367;52.508;13.284;2023-12-22T00:27:51;9.13;;;2.50;;
12603;SDS011;6367;52.508;13.284;2023-12-22T00:30:17;9.40;;;2.43;;
12603;SDS011;6367;52.508;13.284;2023-12-22T00:32:43;6.70;;;2.37;;
12603;SDS011;6367;52.508;13.284;2023-12-22T00:35:08;10.67;;;2.60;;
12603;SDS011;6367;52.508;13.284;2023-12-22T00:37:34;6.43;;;2.30;;
12603;SDS011;6367;52.508;13.284;2023-12-22T00:40:00;8.57;;;2.40;;
12603;SDS011;6367;52.508;13.284;2023-12-22T00:42:26;9.13;;;3.50;;
12603;SDS011;6367;52.508;13.284;2023-12-22T00:44:51;13.27;;;2.90;;
12603;SDS011;6367;52.508;13.284;2023-12-22T00:47:17;9.83;;;2.63;;
12603;SDS011;6367;52.508;13.284;2023-12-22T00:49:43;6.20;;;1.90;;
12603;SDS011;6367;52.508;13.284;2023-12-22T00:52:09;14.73;;;2.57;;
12603;SDS011;6367;52.508;13.284;2023-12-22T00:54:34;5.97;;;2.17;;
12603;SDS011;6367;52.508;13.284;2023-12-22T00:57:00;10.23;;;2.93;;
12603;SDS011;6367;52.508;13.284;2023-12-22T00:59:26;9.13;;;2.03;;
12603;SDS011;6367;52.508;13.284;2023-12-22T01:01:51;4.40;;;1.63;;
12603;SDS011;6367;52.508;13.284;2023-12-22T01:04:17;8.20;;;1.80;;
12603;SDS011;6367;52.508;13.284;2023-12-22T01:06:43;5.47;;;2.20;;
12603;SDS011;6367;52.508;13.284;2023-12-22T01:09:08;4.53;;;1.83;;
12603;SDS011;6367;52.508;13.284;2023-12-22T01:11:34;7.33;;;2.07;;
12603;SDS011;6367;52.508;13.284;2023-12-22T01:14:00;5.50;;;1.80;;
12603;SDS011;6367;52.508;13.284;2023-12-22T01:16:25;7.40;;;2.30;;
12603;SDS011;6367;52.508;13.284;2023-12-22T01:18:51;11.27;;;2.23;;
12603;SDS011;6367;52.508;13.284;2023-12-22T01:21:17;10.20;;;2.63;;
12603;SDS011;6367;52.508;13.284;2023-12-22T01:23:43;10.80;;;2.60;;
12603;SDS011;6367;52.508;13.284;2023-12-22T01:26:08;9.40;;;2.33;;
12603;SDS011;6367;52.508;13.284;2023-12-22T01:28:34;5.43;;;2.23;;
12603;SDS011;6367;52.508;13.284;2023-12-22T01:31:01;8.23;;;1.90;;
12603;SDS011;6367;52.508;13.284;2023-12-22T01:33:28;8.30;;;2.43;;
12603;SDS011;6367;52.508;13.284;2023-12-22T01:35:54;9.93;;;2.20;;
12603;SDS011;6367;52.508;13.284;2023-12-22T01:38:20;6.30;;;2.07;;
12603;SDS011;6367;52.508;13.284;2023-12-22T01:40:46;6.33;;;2.40;;
12603;SDS011;6367;52.508;13.284;2023-12-22T01:43:11;9.13;;;2.70;;
12603;SDS011;6367;52.508;13.284;2023-12-22T01:45:38;8.67;;;2.63;;
12603;SDS011;6367;52.508;13.284;2023-12-22T01:48:04;10.87;;;2.53;;
12603;SDS011;6367;52.508;13.284;2023-12-22T01:50:30;12.83;;;2.80;;
12603;SDS011;6367;52.508;13.284;2023-12-22T01:52:56;5.97;;;2.37;;
12603;SDS011;6367;52.508;13.284;2023-12-22T01:55:22;11.47;;;2.70;;
12603;SDS011;6367;52.508;13.284;2023-12-22T01:57:48;13.17;;;3.00;;
12603;SDS011;6367;52.508;13.284;2023-12-22T02:00:14;15.33;;;2.60;;
12603;SDS011;6367;52.508;13.284;2023-12-22T02:02:41;18.50;;;2.90;;
12603;SDS011;6367;52.508;13.284;2023-12-22T02:05:10;9.37;;;2.80;;
12603;SDS011;6367;52.508;13.284;2023-12-22T02:07:40;8.93;;;2.33;;
12603;SDS011;6367;52.508;13.284;2023-12-22T02:10:09;8.33;;;3.13;;
12603;SDS011;6367;52.508;13.284;2023-12-22T02:12:36;8.77;;;2.50;;
12603;SDS011;6367;52.508;13.284;2023-12-22T02:15:02;10.00;;;2.67;;
12603;SDS011;6367;52.508;13.284;2023-12-22T02:17:33;6.30;;;2.37;;
12603;SDS011;6367;52.508;13.284;2023-12-22T02:20:06;7.97;;;2.20;;
12603;SDS011;6367;52.508;13.284;2023-12-22T02:22:34;7.93;;;2.70;;
12603;SDS011;6367;52.508;13.284;2023-12-22T02:25:00;7.80;;;2.10;;
12603;SDS011;6367;52.508;13.284;2023-12-22T02:27:38;7.97;;;1.90;;
12603;SDS011;6367;52.508;13.284;2023-12-22T02:30:11;11.43;;;2.50;;
12603;SDS011;6367;52.508;13.284;2023-12-22T02:32:42;8.50;;;2.40;;
12603;SDS011;6367;52.508;13.284;2023-12-22T02:35:10;6.13;;;1.80;;
12603;SDS011;6367;52.508;13.284;2023-12-22T02:37:40;6.70;;;2.53;;
12603;SDS011;6367;52.508;13.284;2023-12-22T02:40:09;4.40;;;1.83;;
12603;SDS011;6367;52.508;13.284;2023-12-22T02:42:36;9.27;;;2.20;;
12603;SDS011;6367;52.508;13.284;2023-12-22T02:45:03;9.73;;;2.10;;
12603;SDS011;6367;52.508;13.284;2023-12-22T02:47:30;5.60;;;1.60;;
12603;SDS011;6367;52.508;13.284;2023-12-22T02:49:57;4.70;;;1.47;;
12603;SDS011;6367;52.508;13.284;2023-12-22T02:52:23;7.67;;;1.80;;
12603;SDS011;6367;52.508;13.284;2023-12-22T02:54:49;4.67;;;1.67;;
12603;SDS011;6367;52.508;13.284;2023-12-22T02:57:14;5.03;;;1.60;;
12603;SDS011;6367;52.508;13.284;2023-12-22T02:59:40;8.13;;;1.80;;
12603;SDS011;6367;52.508;13.284;2023-12-22T03:02:05;7.83;;;2.07;;
12603;SDS011;6367;52.508;13.284;2023-12-22T03:04:31;4.33;;;1.20;;
12603;SDS011;6367;52.508;13.284;2023-12-22T03:06:57;5.53;;;1.50;;
12603;SDS011;6367;52.508;13.284;2023-12-22T03:09:22;4.47;;;2.07;;
12603;SDS011;6367;52.508;13.284;2023-12-22T03:11:48;7.50;;;1.40;;
12603;SDS011;6367;52.508;13.284;2023-12-22T03:14:14;5.63;;;1.73;;
12603;SDS011;6367;52.508;13.284;2023-12-22T03:16:40;5.97;;;1.57;;
12603;SDS011;6367;52.508;13.284;2023-12-22T03:19:08;4.30;;;1.40;;
12603;SDS011;6367;52.508;13.284;2023-12-22T03:21:34;7.43;;;1.70;;
12603;SDS011;6367;52.508;13.284;2023-12-22T03:23:59;3.13;;;1.37;;
12603;SDS011;6367;52.508;13.284;2023-12-22T03:26:28;7.90;;;1.70;;
12603;SDS011;6367;52.508;13.284;2023-12-22T03:28:54;5.00;;;1.63;;
12603;SDS011;6367;52.508;13.284;2023-12-22T03:31:19;6.37;;;1.60;;
12603;SDS011;6367;52.508;13.284;2023-12-22T03:33:45;4.57;;;2.50;;
12603;SDS011;6367;52.508;13.284;2023-12-22T03:36:11;6.00;;;1.53;;
12603;SDS011;6367;52.508;13.284;2023-12-22T03:38:36;9.70;;;2.47;;
12603;SDS011;6367;52.508;13.284;2023-12-22T03:41:02;6.83;;;1.50;;
12603;SDS011;6367;52.508;13.284;2023-12-22T03:43:28;9.57;;;2.13;;
12603;SDS011;6367;52.508;13.284;2023-12-22T03:45:54;9.80;;;1.80;;
12603;SDS011;6367;52.508;13.284;2023-12-22T03:48:20;4.43;;;2.03;;
12603;SDS011;6367;52.508;13.284;2023-12-22T03:50:46;8.57;;;1.80;;
12603;SDS011;6367;52.508;13.284;2023-12-22T03:53:11;4.70;;;1.90;;
12603;SDS011;6367;52.508;13.284;2023-12-22T03:55:37;6.00;;;1.90;;
12603;SDS011;6367;52.508;13.284;2023-12-22T03:58:03;8.23;;;1.63;;
12603;SDS011;6367;52.508;13.284;2023-12-22T04:00:30;5.27;;;1.80;;
12603;SDS011;6367;52.508;13.284;2023-12-22T04:02:56;3.23;;;1.13;;
12603;SDS011;6367;52.508;13.284;2023-12-22T04:05:21;3.20;;;1.17;;
12603;SDS011;6367;52.508;13.284;2023-12-22T04:07:47;1.80;;;0.90;;
12603;SDS011;6367;52.508;13.284;2023-12-22T04:10:12;1.70;;;1.10;;
12603;SDS011;6367;52.508;13.284;2023-12-22T04:12:41;3.57;;;0.90;;
12603;SDS011;6367;52.508;13.284;2023-12-22T04:15:06;1.17;;;0.80;;
12603;SDS011;6367;52.508;13.284;2023-12-22T04:17:32;4.00;;;0.80;;
12603;SDS011;6367;52.508;13.284;2023-12-22T04:19:58;2.00;;;0.93;;
12603;SDS011;6367;52.508;13.284;2023-12-22T04:22:24;4.37;;;1.20;;
12603;SDS011;6367;52.508;13.284;2023-12-22T04:24:49;3.63;;;1.07;;
12603;SDS011;6367;52.508;13.284;2023-12-22T04:27:15;2.17;;;1.03;;
12603;SDS011;6367;52.508;13.284;2023-12-22T04:29:40;4.20;;;1.13;;
12603;SDS011;6367;52.508;13.284;2023-12-22T04:32:06;3.80;;;0.90;;
12603;SDS011;6367;52.508;13.284;2023-12-22T04:34:32;4.90;;;1.17;;
12603;SDS011;6367;52.508;13.284;2023-12-22T04:36:57;6.07;;;1.83;;
12603;SDS011;6367;52.508;13.284;2023-12-22T04:39:23;2.27;;;1.00;;
12603;SDS011;6367;52.508;13.284;2023-12-22T04:41:48;3.03;;;1.03;;
12603;SDS011;6367;52.508;13.284;2023-12-22T04:44:14;4.40;;;1.13;;
12603;SDS011;6367;52.508;13.284;2023-12-22T04:46:40;4.47;;;1.20;;
12603;SDS011;6367;52.508;13.284;2023-12-22T04:49:05;4.60;;;1.33;;
12603;SDS011;6367;52.508;13.284;2023-12-22T04:51:31;4.20;;;1.10;;
12603;SDS011;6367;52.508;13.284;2023-12-22T04:53:56;5.43;;;1.37;;
12603;SDS011;6367;52.508;13.284;2023-12-22T04:56:22;2.73;;;1.10;;
12603;SDS011;6367;52.508;13.284;2023-12-22T04:58:48;5.03;;;1.13;;
12603;SDS011;6367;52.508;13.284;2023-12-22T05:01:13;3.60;;;1.30;;
12603;SDS011;6367;52.508;13.284;2023-12-22T05:03:39;2.40;;;0.97;;
12603;SDS011;6367;52.508;13.284;2023-12-22T05:06:04;1.10;;;0.80;;
12603;SDS011;6367;52.508;13.284;2023-12-22T05:08:30;3.00;;;1.17;;
12603;SDS011;6367;52.508;13.284;2023-12-22T05:10:56;1.63;;;1.00;;
12603;SDS011;6367;52.508;13.284;2023-12-22T05:13:21;4.13;;;1.00;;
12603;SDS011;6367;52.508;13.284;2023-12-22T05:15:47;2.07;;;0.80;;
12603;SDS011;6367;52.508;13.284;2023-12-22T05:18:13;1.77;;;0.90;;
12603;SDS011;6367;52.508;13.284;2023-12-22T05:20:38;3.90;;;1.10;;
12603;SDS011;6367;52.508;13.284;2023-12-22T05:23:04;2.90;;;1.00;;
12603;SDS011;6367;52.508;13.284;2023-12-22T05:25:30;3.63;;;1.27;;
12603;SDS011;6367;52.508;13.284;2023-12-22T05:27:55;3.40;;;1.27;;
12603;SDS011;6367;52.508;13.284;2023-12-22T05:30:22;2.10;;;0.83;;
12603;SDS011;6367;52.508;13.284;2023-12-22T05:32:47;4.93;;;1.30;;
12603;SDS011;6367;52.508;13.284;2023-12-22T05:35:13;2.20;;;1.00;;
12603;SDS011;6367;52.508;13.284;2023-12-22T05:37:39;2.43;;;1.00;;
12603;SDS011;6367;52.508;13.284;2023-12-22T05:40:04;1.63;;;0.90;;
12603;SDS011;6367;52.508;13.284;2023-12-22T05:42:31;4.30;;;2.17;;
12603;SDS011;6367;52.508;13.284;2023-12-22T05:44:57;1.43;;;0.70;;
12603;SDS011;6367;52.508;13.284;2023-12-22T05:47:23;6.60;;;1.30;;
12603;SDS011;6367;52.508;13.284;2023-12-22T05:49:49;9.20;;;1.53;;
12603;SDS011;6367;52.508;13.284;2023-12-22T05:52:14;2.47;;;0.90;;
12603;SDS011;6367;52.508;13.284;2023-12-22T05:54:40;5.10;;;1.20;;
12603;SDS011;6367;52.508;13.284;2023-12-22T05:57:06;4.40;;;1.50;;
12603;SDS011;6367;52.508;13.284;2023-12-22T05:59:32;3.27;;;0.97;;
12603;SDS011;6367;52.508;13.284;2023-12-22T06:01:59;3.10;;;1.10;;
12603;SDS011;6367;52.508;13.284;2023-12-22T06:04:25;7.20;;;1.47;;
12603;SDS011;6367;52.508;13.284;2023-12-22T06:06:51;2.83;;;1.00;;
12603;SDS011;6367;52.508;13.284;2023-12-22T06:09:17;5.30;;;1.40;;
12603;SDS011;6367;52.508;13.284;2023-12-22T06:11:45;5.37;;;0.93;;
12603;SDS011;6367;52.508;13.284;2023-12-22T06:14:11;6.03;;;1.33;;
12603;SDS011;6367;52.508;13.284;2023-12-22T06:16:36;8.40;;;1.20;;
12603;SDS011;6367;52.508;13.284;2023-12-22T06:19:02;4.00;;;1.20;;
12603;SDS011;6367;52.508;13.284;2023-12-22T06:21:28;3.23;;;1.17;;
12603;SDS011;6367;52.508;13.284;2023-12-22T06:23:54;3.77;;;0.90;;
12603;SDS011;6367;52.508;13.284;2023-12-22T06:26:19;1.80;;;0.90;;
12603;SDS011;6367;52.508;13.284;2023-12-22T06:28:45;1.67;;;0.77;;
12603;SDS011;6367;52.508;13.284;2023-12-22T06:31:17;2.23;;;0.93;;
12603;SDS011;6367;52.508;13.284;2023-12-22T06:33:44;2.97;;;0.90;;
12603;SDS011;6367;52.508;13.284;2023-12-22T06:36:44;5.07;;;1.27;;
12603;SDS011;6367;52.508;13.284;2023-12-22T06:39:03;2.33;;;0.70;;
12603;SDS011;6367;52.508;13.284;2023-12-22T06:41:29;2.93;;;0.70;;
12603;SDS011;6367;52.508;13.284;2023-12-22T06:43:58;3.90;;;1.03;;
12603;SDS011;6367;52.508;13.284;2023-12-22T06:46:25;4.13;;;1.20;;
12603;SDS011;6367;52.508;13.284;2023-12-22T06:48:51;1.20;;;0.70;;
12603;SDS011;6367;52.508;13.284;2023-12-22T06:53:51;2.23;;;0.93;;
12603;SDS011;6367;52.508;13.284;2023-12-22T06:56:18;2.10;;;0.70;;
12603;SDS011;6367;52.508;13.284;2023-12-22T06:58:47;4.33;;;1.10;;
12603;SDS011;6367;52.508;13.284;2023-12-22T07:01:33;2.97;;;0.97;;
12603;SDS011;6367;52.508;13.284;2023-12-22T07:04:00;1.70;;;0.90;;
12603;SDS011;6367;52.508;13.284;2023-12-22T07:06:28;1.40;;;0.80;;
12603;SDS011;6367;52.508;13.284;2023-12-22T07:11:48;3.03;;;1.10;;
12603;SDS011;6367;52.508;13.284;2023-12-22T07:14:21;5.27;;;1.10;;
12603;SDS011;6367;52.508;13.284;2023-12-22T07:16:47;3.47;;;1.13;;
12603;SDS011;6367;52.508;13.284;2023-12-22T07:19:12;2.90;;;0.90;;
12603;SDS011;6367;52.508;13.284;2023-12-22T07:21:38;11.90;;;1.73;;
12603;SDS011;6367;52.508;13.284;2023-12-22T07:24:05;3.33;;;1.10;;
12603;SDS011;6367;52.508;13.284;2023-12-22T07:26:31;4.23;;;1.10;;
12603;SDS011;6367;52.508;13.284;2023-12-22T07:28:57;1.47;;;0.83;;
12603;SDS011;6367;52.508;13.284;2023-12-22T07:31:24;4.83;;;1.17;;
12603;SDS011;6367;52.508;13.284;2023-12-22T07:33:50;4.33;;;1.37;;
12603;SDS011;6367;52.508;13.284;2023-12-22T07:36:17;4.47;;;1.10;;
12603;SDS011;6367;52.508;13.284;2023-12-22T07:38:46;6.67;;;1.30;;
12603;SDS011;6367;52.508;13.284;2023-12-22T07:41:12;7.00;;;1.63;;
12603;SDS011;6367;52.508;13.284;2023-12-22T07:43:38;6.90;;;1.47;;
12603;SDS011;6367;52.508;13.284;2023-12-22T07:46:03;4.33;;;1.20;;
12603;SDS011;6367;52.508;13.284;2023-12-22T07:48:29;9.50;;;2.07;;
12603;SDS011;6367;52.508;13.284;2023-12-22T07:50:55;4.80;;;1.30;;
12603;SDS011;6367;52.508;13.284;2023-12-22T07:53:20;2.93;;;1.20;;
12603;SDS011;6367;52.508;13.284;2023-12-22T07:55:46;3.60;;;1.10;;
12603;SDS011;6367;52.508;13.284;2023-12-22T07:58:12;4.90;;;1.10;;
12603;SDS011;6367;52.508;13.284;2023-12-22T08:00:38;5.37;;;1.10;;
12603;SDS011;6367;52.508;13.284;2023-12-22T08:03:04;3.83;;;0.97;;
12603;SDS011;6367;52.508;13.284;2023-12-22T08:05:30;6.30;;;1.23;;
12603;SDS011;6367;52.508;13.284;2023-12-22T08:07:56;2.10;;;0.90;;
12603;SDS011;6367;52.508;13.284;2023-12-22T08:10:24;5.33;;;1.10;;
12603;SDS011;6367;52.508;13.284;2023-12-22T08:12:49;2.60;;;1.00;;
12603;SDS011;6367;52.508;13.284;2023-12-22T08:15:15;5.00;;;1.00;;
12603;SDS011;6367;52.508;13.284;2023-12-22T08:17:47;3.17;;;0.90;;
12603;SDS011;6367;52.508;13.284;2023-12-22T08:20:19;1.90;;;0.93;;
12603;SDS011;6367;52.508;13.284;2023-12-22T08:22:46;1.80;;;0.87;;
12603;SDS011;6367;52.508;13.284;2023-12-22T08:25:12;2.03;;;0.80;;
12603;SDS011;6367;52.508;13.284;2023-12-22T08:27:38;2.10;;;0.90;;
12603;SDS011;6367;52.508;13.284;2023-12-22T08:30:04;5.43;;;0.90;;
12603;SDS011;6367;52.508;13.284;2023-12-22T08:32:31;1.20;;;0.93;;
12603;SDS011;6367;52.508;13.284;2023-12-22T08:34:56;5.30;;;1.03;;
12603;SDS011;6367;52.508;13.284;2023-12-22T08:37:22;2.37;;;0.93;;
12603;SDS011;6367;52.508;13.284;2023-12-22T08:39:48;6.93;;;1.20;;
12603;SDS011;6367;52.508;13.284;2023-12-22T08:42:15;4.03;;;1.07;;
12603;SDS011;6367;52.508;13.284;2023-12-22T08:44:44;4.00;;;1.10;;
12603;SDS011;6367;52.508;13.284;2023-12-22T08:47:10;5.43;;;1.17;;
12603;SDS011;6367;52.508;13.284;2023-12-22T08:49:35;3.00;;;1.40;;
12603;SDS011;6367;52.508;13.284;2023-12-22T08:52:01;5.30;;;1.60;;
12603;SDS011;6367;52.508;13.284;2023-12-22T08:54:28;3.53;;;1.10;;
12603;SDS011;6367;52.508;13.284;2023-12-22T08:56:54;3.80;;;1.53;;
12603;SDS011;6367;52.508;13.284;2023-12-22T08:59:20;8.17;;;1.90;;
12603;SDS011;6367;52.508;13.284;2023-12-22T09:01:45;5.90;;;1.73;;
12603;SDS011;6367;52.508;13.284;2023-12-22T09:04:11;3.77;;;1.37;;
12603;SDS011;6367;52.508;13.284;2023-12-22T09:06:37;6.83;;;1.43;;
12603;SDS011;6367;52.508;13.284;2023-12-22T09:09:03;9.10;;;2.23;;
12603;SDS011;6367;52.508;13.284;2023-12-22T09:11:29;5.10;;;1.60;;
12603;SDS011;6367;52.508;13.284;2023-12-22T09:13:55;4.10;;;1.60;;
12603;SDS011;6367;52.508;13.284;2023-12-22T09:16:21;6.80;;;1.70;;
12603;SDS011;6367;52.508;13.284;2023-12-22T09:18:47;5.17;;;1.60;;
12603;SDS011;6367;52.508;13.284;2023-12-22T09:21:14;6.97;;;1.60;;
12603;SDS011;6367;52.508;13.284;2023-12-22T09:23:40;6.90;;;1.83;;
12603;SDS011;6367;52.508;13.284;2023-12-22T09:26:09;8.53;;;1.77;;
12603;SDS011;6367;52.508;13.284;2023-12-22T09:28:35;7.70;;;2.10;;
12603;SDS011;6367;52.508;13.284;2023-12-22T09:31:00;5.93;;;1.47;;
12603;SDS011;6367;52.508;13.284;2023-12-22T09:33:27;7.87;;;2.80;;
12603;SDS011;6367;52.508;13.284;2023-12-22T09:35:52;5.40;;;1.47;;
12603;SDS011;6367;52.508;13.284;2023-12-22T09:38:18;5.70;;;1.53;;
12603;SDS011;6367;52.508;13.284;2023-12-22T09:40:44;10.33;;;2.60;;
12603;SDS011;6367;52.508;13.284;2023-12-22T09:43:10;8.37;;;1.93;;
12603;SDS011;6367;52.508;13.284;2023-12-22T09:45:40;5.93;;;1.80;;
12603;SDS011;6367;52.508;13.284;2023-12-22T09:48:07;7.63;;;2.33;;
12603;SDS011;6367;52.508;13.284;2023-12-22T09:50:33;9.73;;;1.80;;
12603;SDS011;6367;52.508;13.284;2023-12-22T09:53:01;7.33;;;2.50;;
12603;SDS011;6367;52.508;13.284;2023-12-22T09:55:30;6.27;;;1.73;;
12603;SDS011;6367;52.508;13.284;2023-12-22T09:57:57;7.90;;;2.00;;
12603;SDS011;6367;52.508;13.284;2023-12-22T10:00:24;6.60;;;1.83;;
12603;SDS011;6367;52.508;13.284;2023-12-22T10:02:53;10.60;;;2.30;;
12603;SDS011;6367;52.508;13.284;2023-12-22T10:05:19;7.93;;;2.50;;
12603;SDS011;6367;52.508;13.284;2023-12-22T10:07:45;10.50;;;2.67;;
12603;SDS011;6367;52.508;13.284;2023-12-22T10:10:12;5.83;;;1.67;;
12603;SDS011;6367;52.508;13.284;2023-12-22T10:12:38;13.13;;;2.40;;
12603;SDS011;6367;52.508;13.284;2023-12-22T10:15:05;8.37;;;2.40;;
12603;SDS011;6367;52.508;13.284;2023-12-22T10:17:33;9.70;;;3.00;;
12603;SDS011;6367;52.508;13.284;2023-12-22T10:19:59;10.40;;;2.57;;
12603;SDS011;6367;52.508;13.284;2023-12-22T10:22:25;15.10;;;2.23;;
12603;SDS011;6367;52.508;13.284;2023-12-22T10:24:50;9.87;;;2.50;;
12603;SDS011;6367;52.508;13.284;2023-12-22T10:27:16;8.43;;;2.33;;
12603;SDS011;6367;52.508;13.284;2023-12-22T10:29:47;12.87;;;2.90;;
12603;SDS011;6367;52.508;13.284;2023-12-22T10:32:21;12.53;;;3.73;;
12603;SDS011;6367;52.508;13.284;2023-12-22T10:34:47;12.50;;;2.80;;
12603;SDS011;6367;52.508;13.284;2023-12-22T10:37:14;10.57;;;2.73;;
12603;SDS011;6367;52.508;13.284;2023-12-22T10:39:40;13.20;;;2.50;;
12603;SDS011;6367;52.508;13.284;2023-12-22T10:42:06;9.37;;;2.77;;
12603;SDS011;6367;52.508;13.284;2023-12-22T10:44:32;11.97;;;2.63;;
12603;SDS011;6367;52.508;13.284;2023-12-22T10:47:00;8.50;;;2.93;;
12603;SDS011;6367;52.508;13.284;2023-12-22T10:49:27;10.90;;;3.23;;
12603;SDS011;6367;52.508;13.284;2023-12-22T10:51:53;12.33;;;2.43;;
12603;SDS011;6367;52.508;13.284;2023-12-22T10:54:19;9.93;;;2.17;;
12603;SDS011;6367;52.508;13.284;2023-12-22T10:56:45;8.77;;;1.70;;
12603;SDS011;6367;52.508;13.284;2023-12-22T10:59:10;7.23;;;2.17;;
12603;SDS011;6367;52.508;13.284;2023-12-22T11:01:36;5.17;;;1.87;;
12603;SDS011;6367;52.508;13.284;2023-12-22T11:04:06;5.17;;;1.57;;
12603;SDS011;6367;52.508;13.284;2023-12-22T11:06:36;10.10;;;1.80;;
12603;SDS011;6367;52.508;13.284;2023-12-22T11:09:03;6.83;;;1.97;;
12603;SDS011;6367;52.508;13.284;2023-12-22T11:11:34;9.53;;;2.00;;
12603;SDS011;6367;52.508;13.284;2023-12-22T11:14:04;5.77;;;1.90;;
12603;SDS011;6367;52.508;13.284;2023-12-22T11:16:31;8.27;;;1.90;;
12603;SDS011;6367;52.508;13.284;2023-12-22T11:19:03;6.43;;;2.47;;
12603;SDS011;6367;52.508;13.284;2023-12-22T11:21:29;9.13;;;2.47;;
12603;SDS011;6367;52.508;13.284;2023-12-22T11:23:56;5.33;;;1.80;;
12603;SDS011;6367;52.508;13.284;2023-12-22T11:26:22;11.60;;;2.43;;
12603;SDS011;6367;52.508;13.284;2023-12-22T11:28:49;6.40;;;2.60;;
12603;SDS011;6367;52.508;13.284;2023-12-22T11:31:16;8.27;;;1.60;;
12603;SDS011;6367;52.508;13.284;2023-12-22T11:33:46;5.67;;;2.20;;
12603;SDS011;6367;52.508;13.284;2023-12-22T11:36:14;10.33;;;1.60;;
12603;SDS011;6367;52.508;13.284;2023-12-22T11:38:41;8.63;;;2.50;;
12603;SDS011;6367;52.508;13.284;2023-12-22T11:41:09;5.23;;;1.63;;
12603;SDS011;6367;52.508;13.284;2023-12-22T11:43:38;4.07;;;1.43;;
12603;SDS011;6367;52.508;13.284;2023-12-22T11:46:05;6.97;;;2.30;;
12603;SDS011;6367;52.508;13.284;2023-12-22T11:48:31;7.43;;;2.00;;
12603;SDS011;6367;52.508;13.284;2023-12-22T11:50:57;5.20;;;1.80;;
12603;SDS011;6367;52.508;13.284;2023-12-22T11:53:23;6.07;;;2.00;;
12603;SDS011;6367;52.508;13.284;2023-12-22T11:55:56;8.13;;;1.67;;
12603;SDS011;6367;52.508;13.284;2023-12-22T12:01:16;9.40;;;1.80;;
12603;SDS011;6367;52.508;13.284;2023-12-22T12:03:50;4.23;;;1.60;;
12603;SDS011;6367;52.508;13.284;2023-12-22T12:08:52;6.63;;;1.70;;
12603;SDS011;6367;52.508;13.284;2023-12-22T12:11:19;9.43;;;1.80;;
12603;SDS011;6367;52.508;13.284;2023-12-22T12:13:45;6.70;;;1.90;;
12603;SDS011;6367;52.508;13.284;2023-12-22T12:16:16;5.67;;;1.80;;
12603;SDS011;6367;52.508;13.284;2023-12-22T12:18:46;6.03;;;1.70;;
12603;SDS011;6367;52.508;13.284;2023-12-22T12:21:12;5.50;;;1.70;;
12603;SDS011;6367;52.508;13.284;2023-12-22T12:23:38;7.73;;;2.00;;
12603;SDS011;6367;52.508;13.284;2023-12-22T12:26:06;7.07;;;2.37;;
12603;SDS011;6367;52.508;13.284;2023-12-22T12:28:33;10.33;;;2.27;;
12603;SDS011;6367;52.508;13.284;2023-12-22T12:31:02;6.93;;;2.13;;
12603;SDS011;6367;52.508;13.284;2023-12-22T12:33:32;10.80;;;2.30;;
12603;SDS011;6367;52.508;13.284;2023-12-22T12:35:59;6.17;;;1.90;;
12603;SDS011;6367;52.508;13.284;2023-12-22T12:39:08;11.60;;;2.07;;
12603;SDS011;6367;52.508;13.284;2023-12-22T12:41:30;6.70;;;1.80;;
12603;SDS011;6367;52.508;13.284;2023-12-22T12:43:56;5.90;;;2.30;;
12603;SDS011;6367;52.508;13.284;2023-12-22T12:46:23;4.40;;;2.00;;
12603;SDS011;6367;52.508;13.284;2023-12-22T12:49:07;7.80;;;2.17;;
12603;SDS011;6367;52.508;13.284;2023-12-22T12:51:44;7.37;;;1.87;;
12603;SDS011;6367;52.508;13.284;2023-12-22T12:54:11;7.70;;;2.80;;
12603;SDS011;6367;52.508;13.284;2023-12-22T12:56:45;5.47;;;2.13;;
12603;SDS011;6367;52.508;13.284;2023-12-22T12:59:12;7.10;;;2.27;;
12603;SDS011;6367;52.508;13.284;2023-12-22T13:01:40;8.80;;;2.40;;
12603;SDS011;6367;52.508;13.284;2023-12-22T13:04:07;9.27;;;2.40;;
12603;SDS011;6367;52.508;13.284;2023-12-22T13:06:33;9.63;;;2.20;;
12603;SDS011;6367;52.508;13.284;2023-12-22T13:08:59;9.43;;;2.60;;
12603;SDS011;6367;52.508;13.284;2023-12-22T13:11:34;6.90;;;2.40;;
12603;SDS011;6367;52.508;13.284;2023-12-22T13:14:01;6.20;;;1.80;;
12603;SDS011;6367;52.508;13.284;2023-12-22T13:16:27;11.57;;;2.43;;
12603;SDS011;6367;52.508;13.284;2023-12-22T13:18:59;5.60;;;1.90;;
12603;SDS011;6367;52.508;13.284;2023-12-22T13:21:25;6.60;;;1.87;;
12603;SDS011;6367;52.508;13.284;2023-12-22T13:26:38;13.37;;;1.90;;
12603;SDS011;6367;52.508;13.284;2023-12-22T13:29:08;11.03;;;2.20;;
12603;SDS011;6367;52.508;13.284;2023-12-22T13:31:39;7.33;;;2.40;;
12603;SDS011;6367;52.508;13.284;2023-12-22T13:34:12;5.37;;;1.70;;
12603;SDS011;6367;52.508;13.284;2023-12-22T13:36:41;8.47;;;2.27;;
12603;SDS011;6367;52.508;13.284;2023-12-22T13:39:08;7.77;;;2.13;;
12603;SDS011;6367;52.508;13.284;2023-12-22T13:41:43;8.70;;;2.40;;
12603;SDS011;6367;52.508;13.284;2023-12-22T13:44:12;14.00;;;2.63;;
12603;SDS011;6367;52.508;13.284;2023-12-22T13:46:38;10.30;;;2.53;;
12603;SDS011;6367;52.508;13.284;2023-12-22T13:49:07;9.57;;;2.00;;
12603;SDS011;6367;52.508;13.284;2023-12-22T13:51:44;11.23;;;2.47;;
12603;SDS011;6367;52.508;13.284;2023-12-22T13:54:10;6.60;;;2.33;;
12603;SDS011;6367;52.508;13.284;2023-12-22T13:56:36;5.90;;;1.80;;
12603;SDS011;6367;52.508;13.284;2023-12-22T13:59:05;10.70;;;2.90;;
12603;SDS011;6367;52.508;13.284;2023-12-22T14:01:31;6.30;;;2.13;;
12603;SDS011;6367;52.508;13.284;2023-12-22T14:03:57;3.37;;;1.97;;
12603;SDS011;6367;52.508;13.284;2023-12-22T14:06:26;5.93;;;1.83;;
12603;SDS011;6367;52.508;13.284;2023-12-22T14:08:55;4.20;;;1.60;;
12603;SDS011;6367;52.508;13.284;2023-12-22T14:11:22;4.70;;;1.40;;
12603;SDS011;6367;52.508;13.284;2023-12-22T14:13:48;4.40;;;1.60;;
12603;SDS011;6367;52.508;13.284;2023-12-22T14:16:14;6.40;;;1.90;;
12603;SDS011;6367;52.508;13.284;2023-12-22T14:18:43;5.63;;;1.63;;
12603;SDS011;6367;52.508;13.284;2023-12-22T14:21:09;4.63;;;1.60;;
12603;SDS011;6367;52.508;13.284;2023-12-22T14:23:35;4.77;;;1.30;;
12603;SDS011;6367;52.508;13.284;2023-12-22T14:26:01;7.40;;;1.67;;
12603;SDS011;6367;52.508;13.284;2023-12-22T14:28:26;3.67;;;1.60;;
12603;SDS011;6367;52.508;13.284;2023-12-22T14:30:52;4.60;;;1.23;;
12603;SDS011;6367;52.508;13.284;2023-12-22T14:33:18;3.43;;;1.10;;
12603;SDS011;6367;52.508;13.284;2023-12-22T14:35:44;5.80;;;1.27;;
12603;SDS011;6367;52.508;13.284;2023-12-22T14:38:09;5.37;;;1.20;;
12603;SDS011;6367;52.508;13.284;2023-12-22T14:40:35;3.90;;;1.10;;
12603;SDS011;6367;52.508;13.284;2023-12-22T14:43:00;4.83;;;1.50;;
12603;SDS011;6367;52.508;13.284;2023-12-22T14:45:27;4.90;;;1.20;;
12603;SDS011;6367;52.508;13.284;2023-12-22T14:47:53;3.63;;;1.30;;
12603;SDS011;6367;52.508;13.284;2023-12-22T14:50:19;4.93;;;1.30;;
12603;SDS011;6367;52.508;13.284;2023-12-22T14:52:44;4.00;;;1.50;;
12603;SDS011;6367;52.508;13.284;2023-12-22T14:55:10;3.90;;;1.90;;
12603;SDS011;6367;52.508;13.284;2023-12-22T14:57:36;3.87;;;1.70;;